Time;durP1;ratioP1;P1;durP2;ratioP2;P2;SDS_P1;SDS_P2;PMS_P1;PMS_P2;Temp;Humidity;BMP_temperature;BMP_pressure;BME280_temperature;BME280_humidity;BME280_pressure;Samples;Min_cycle;Max_cycle;Signal;HPM_P1;HPM_P2
2023/06/13 00:00:00;;;;;;;5.00;4.00;;;;;;;14.56;100.00;96783.66;5083965;28;20439;-69
2023/06/13 00:02:25;;;;;;;3.55;2.72;;;;;;;14.49;100.00;96789.66;5084018;28;20532;-69
2023/06/13 00:04:51;;;;;;;2.40;2.20;;;;;;;14.42;100.00;96789.38;5085330;28;20151;-69
2023/06/13 00:07:17;;;;;;;2.95;2.10;;;;;;;14.44;100.00;96793.56;5090072;28;20024;-69
2023/06/13 00:09:43;;;;;;;2.60;2.50;;;;;;;14.45;100.00;96799.69;5085021;28;20098;-68
2023/06/13 00:12:09;;;;;;;2.38;2.17;;;;;;;14.49;100.00;96800.25;5082259;28;20024;-69
2023/06/13 00:14:35;;;;;;;3.40;2.05;;;;;;;14.40;100.00;96706.53;5084307;28;20481;-69
2023/06/13 00:17:01;;;;;;;2.92;2.05;;;;;;;14.36;100.00;96713.94;5085866;28;20124;-69
2023/06/13 00:19:28;;;;;;;2.63;2.42;;;;;;;14.37;100.00;96717.44;5086218;28;20405;-69
2023/06/13 00:21:56;;;;;;;4.25;2.10;;;;;;;14.35;100.00;96722.03;5083913;28;20027;-69
2023/06/13 00:24:22;;;;;;;2.53;2.33;;;;;;;14.32;100.00;96726.63;5089571;28;20507;-69
2023/06/13 00:26:47;;;;;;;4.28;2.85;;;;;;;14.36;100.00;96729.81;5091205;28;20245;-69
2023/06/13 00:29:12;;;;;;;4.85;2.38;;;;;;;14.42;100.00;96741.69;5084010;28;20016;-69
2023/06/13 00:31:38;;;;;;;2.10;1.90;;;;;;;14.37;100.00;96746.56;5085543;28;20024;-69
2023/06/13 00:34:03;;;;;;;2.33;2.22;;;;;;;14.29;100.00;96749.91;5090552;28;20016;-69
2023/06/13 00:36:32;;;;;;;3.28;2.38;;;;;;;14.26;100.00;96753.69;5086954;28;20199;-69
2023/06/13 00:38:57;;;;;;;2.30;2.10;;;;;;;14.31;100.00;96762.06;5091094;28;20028;-69
2023/06/13 00:41:24;;;;;;;2.63;2.42;;;;;;;14.33;100.00;96753.94;5084360;28;20016;-69
2023/06/13 00:43:49;;;;;;;2.50;2.40;;;;;;;14.32;100.00;96762.88;5087365;28;20425;-69
2023/06/13 00:46:17;;;;;;;12.38;4.97;;;;;;;14.30;100.00;96763.03;5080387;28;20016;-69
2023/06/13 00:48:44;;;;;;;8.70;6.10;;;;;;;14.33;100.00;96765.41;5084778;28;20040;-69
2023/06/13 00:51:12;;;;;;;10.88;7.97;;;;;;;14.33;100.00;96768.03;5080787;28;20103;-69
2023/06/13 00:53:38;;;;;;;4.20;3.97;;;;;;;14.36;100.00;96772.22;5089416;28;20029;-69
2023/06/13 00:56:06;;;;;;;7.13;4.35;;;;;;;14.34;100.00;96771.50;5094873;28;20035;-69
2023/06/13 00:58:32;;;;;;;3.63;3.33;;;;;;;14.28;100.00;96764.13;5085011;28;20019;-69
2023/06/13 01:00:59;;;;;;;5.55;5.15;;;;;;;14.31;100.00;96770.00;5087285;28;20485;-69
2023/06/13 01:03:25;;;;;;;8.35;7.55;;;;;;;14.31;100.00;96785.88;5078080;28;20035;-69
2023/06/13 01:05:50;;;;;;;7.25;6.65;;;;;;;14.31;100.00;96785.03;5087368;28;20052;-69
2023/06/13 01:08:22;;;;;;;7.03;6.32;;;;;;;14.34;100.00;96790.06;5094788;28;20047;-69
2023/06/13 01:10:59;;;;;;;7.60;7.07;;;;;;;14.32;100.00;96790.22;5085246;28;20028;-69
2023/06/13 01:13:57;;;;;;;7.28;5.75;;;;;;;14.37;100.00;96796.91;5081307;28;20055;-69
2023/06/13 01:16:35;;;;;;;5.07;4.78;;;;;;;14.42;100.00;96813.22;5082053;28;20024;-69
2023/06/13 01:19:05;;;;;;;4.97;4.13;;;;;;;14.46;100.00;96815.44;5085891;28;20507;-69
2023/06/13 01:21:32;;;;;;;5.82;4.30;;;;;;;14.42;100.00;96821.16;5075816;28;20032;-69
2023/06/13 01:24:03;;;;;;;4.05;3.80;;;;;;;14.41;100.00;96819.47;5088904;28;20020;-69
2023/06/13 01:26:51;;;;;;;3.58;2.97;;;;;;;14.44;100.00;96822.69;5084318;28;20028;-69
2023/06/13 01:29:17;;;;;;;3.55;3.25;;;;;;;14.45;100.00;96828.81;5082227;28;20081;-69
2023/06/13 01:31:46;;;;;;;8.25;3.60;;;;;;;14.43;100.00;96839.56;5090235;28;20019;-69
2023/06/13 01:34:12;;;;;;;3.67;3.33;;;;;;;14.45;100.00;96826.19;5084104;28;20028;-69
2023/06/13 01:36:38;;;;;;;5.80;3.17;;;;;;;14.43;100.00;96828.13;5085544;28;20028;-69
2023/06/13 01:39:03;;;;;;;3.78;2.80;;;;;;;14.40;100.00;96831.91;5089765;28;20047;-69
2023/06/13 01:41:29;;;;;;;3.60;3.40;;;;;;;14.39;100.00;96842.63;5088037;28;20257;-69
2023/06/13 01:43:54;;;;;;;7.32;3.65;;;;;;;14.38;100.00;96839.16;5092547;28;20052;-69
2023/06/13 01:46:26;;;;;;;3.97;3.67;;;;;;;14.39;100.00;96842.63;5085697;28;20183;-69
2023/06/13 01:49:24;;;;;;;6.20;3.95;;;;;;;14.46;100.00;96846.41;5084586;28;20088;-69
2023/06/13 01:52:03;;;;;;;5.55;5.07;;;;;;;14.39;100.00;96839.97;5084133;28;20040;-69
2023/06/13 01:54:35;;;;;;;6.38;5.90;;;;;;;14.40;100.00;96841.66;5083634;28;20037;-68
2023/06/13 01:57:06;;;;;;;6.38;5.88;;;;;;;14.42;100.00;96692.19;5087341;28;20511;-69
2023/06/13 01:59:33;;;;;;;6.53;6.05;;;;;;;14.42;100.00;96704.59;5099147;28;20024;-69
2023/06/13 02:01:59;;;;;;;8.60;7.80;;;;;;;14.43;100.00;96711.56;5089204;28;20028;-69
2023/06/13 02:04:26;;;;;;;12.45;10.25;;;;;;;14.41;100.00;96738.22;5087855;28;20016;-69
2023/06/13 02:06:51;;;;;;;13.68;12.60;;;;;;;14.45;100.00;96598.34;5094595;28;20044;-69
2023/06/13 02:09:16;;;;;;;12.45;11.38;;;;;;;14.49;100.00;96533.50;5088984;28;20426;-69
2023/06/13 02:11:42;;;;;;;11.70;10.70;;;;;;;14.48;100.00;96441.75;5089550;28;20115;-69
2023/06/13 02:14:08;;;;;;;11.27;10.25;;;;;;;14.44;100.00;96454.47;5092109;28;20103;-69
2023/06/13 02:16:34;;;;;;;11.43;10.50;;;;;;;14.46;100.00;96478.13;5083162;28;20103;-69
2023/06/13 02:19:00;;;;;;;11.98;10.73;;;;;;;14.51;100.00;96501.53;5093930;28;20021;-68
2023/06/13 02:21:28;;;;;;;11.18;10.15;;;;;;;14.52;100.00;96525.25;5090150;28;20031;-69
2023/06/13 02:23:53;;;;;;;9.30;8.55;;;;;;;14.55;100.00;96543.50;5085888;28;20099;-68
2023/06/13 02:26:19;;;;;;;8.30;7.60;;;;;;;14.60;100.00;96548.38;5084732;28;20089;-69
2023/06/13 02:28:45;;;;;;;8.77;8.02;;;;;;;14.54;100.00;96565.69;5089939;28;20024;-69
2023/06/13 02:31:11;;;;;;;9.15;8.45;;;;;;;14.45;100.00;96577.13;5094021;28;20544;-69
2023/06/13 02:33:38;;;;;;;10.70;9.15;;;;;;;14.43;100.00;96589.69;5089618;28;20105;-70
2023/06/13 02:36:05;;;;;;;11.10;10.10;;;;;;;14.47;100.00;96601.66;5088282;28;20050;-70
2023/06/13 02:38:30;;;;;;;11.45;10.45;;;;;;;14.52;100.00;96615.34;5091253;28;20241;-70
2023/06/13 02:40:56;;;;;;;10.23;9.27;;;;;;;14.55;100.00;96622.16;5089816;28;20085;-69
2023/06/13 02:43:21;;;;;;;9.57;8.52;;;;;;;14.59;100.00;96318.84;5085752;28;20036;-70
2023/06/13 02:45:47;;;;;;;10.57;8.55;;;;;;;14.55;100.00;96323.59;5085507;28;20468;-70
2023/06/13 02:48:12;;;;;;;9.20;8.30;;;;;;;14.55;100.00;96346.59;5082545;28;20035;-69
2023/06/13 02:50:38;;;;;;;7.07;6.38;;;;;;;14.54;100.00;96374.91;5087258;28;20415;-70
2023/06/13 02:53:03;;;;;;;5.78;4.88;;;;;;;14.59;100.00;96398.31;5086441;28;20062;-69
2023/06/13 02:55:29;;;;;;;11.02;8.68;;;;;;;14.55;100.00;96432.22;5084900;28;20071;-70
2023/06/13 02:57:55;;;;;;;12.65;11.50;;;;;;;14.58;100.00;96450.47;5086636;28;20104;-70
2023/06/13 03:00:21;;;;;;;20.40;18.48;;;;;;;14.59;100.00;96472.53;5087811;28;20051;-70
2023/06/13 03:02:46;;;;;;;32.15;28.65;;;;;;;14.58;100.00;96495.53;5087931;28;20024;-69
2023/06/13 03:05:14;;;;;;;31.63;28.58;;;;;;;14.56;100.00;96520.47;5080510;28;20524;-69
2023/06/13 03:07:42;;;;;;;29.60;26.98;;;;;;;14.54;100.00;96541.84;5085594;28;20051;-69
2023/06/13 03:10:08;;;;;;;30.50;27.55;;;;;;;14.51;100.00;96536.00;5089098;28;20389;-70
2023/06/13 03:12:34;;;;;;;24.40;22.30;;;;;;;14.54;100.00;96536.53;5088624;28;20024;-69
2023/06/13 03:14:59;;;;;;;18.33;16.58;;;;;;;14.59;100.00;96523.69;5078253;28;20021;-69
2023/06/13 03:17:25;;;;;;;19.63;14.30;;;;;;;14.61;100.00;96545.56;5085475;28;20133;-69
2023/06/13 03:19:51;;;;;;;24.27;21.98;;;;;;;14.56;100.00;96561.06;5085944;28;20737;-69
2023/06/13 03:22:17;;;;;;;27.85;25.40;;;;;;;14.52;100.00;96574.75;5084711;28;20099;-69
2023/06/13 03:24:44;;;;;;;26.63;24.15;;;;;;;14.51;100.00;96587.19;5087116;28;20016;-69
2023/06/13 03:27:12;;;;;;;30.23;27.23;;;;;;;14.46;100.00;96600.84;5082832;28;20012;-69
2023/06/13 03:29:41;;;;;;;31.52;28.65;;;;;;;14.42;100.00;96611.88;5088623;28;20024;-69
2023/06/13 03:32:08;;;;;;;31.58;28.50;;;;;;;14.43;100.00;96627.63;5091125;28;20091;-69
2023/06/13 03:34:37;;;;;;;30.27;27.48;;;;;;;14.53;100.00;96600.25;5084218;28;20028;-69
2023/06/13 03:37:07;;;;;;;31.25;28.33;;;;;;;14.58;100.00;96619.22;5087557;28;20019;-69
2023/06/13 03:39:33;;;;;;;34.15;31.10;;;;;;;14.60;100.00;96634.00;5085265;28;20081;-69
2023/06/13 03:42:00;;;;;;;38.10;34.17;;;;;;;14.61;100.00;96651.56;5091772;28;20021;-69
2023/06/13 03:44:27;;;;;;;32.42;29.25;;;;;;;14.69;100.00;96660.59;5085144;28;20861;-69
2023/06/13 03:46:53;;;;;;;30.40;27.33;;;;;;;14.66;100.00;96669.69;5089332;28;20021;-68
2023/06/13 03:49:19;;;;;;;29.45;25.85;;;;;;;14.68;100.00;96677.47;5082382;28;20120;-69
2023/06/13 03:51:44;;;;;;;16.75;15.27;;;;;;;14.68;100.00;96682.78;5094354;28;20095;-68
2023/06/13 03:54:10;;;;;;;11.68;10.65;;;;;;;14.69;100.00;96679.16;5088142;28;20028;-69
2023/06/13 03:56:36;;;;;;;12.88;10.20;;;;;;;14.70;100.00;96686.13;5089376;28;20020;-68
2023/06/13 03:59:01;;;;;;;10.30;9.40;;;;;;;14.67;100.00;96689.06;5087093;28;20020;-69
2023/06/13 04:01:28;;;;;;;11.20;10.20;;;;;;;14.69;100.00;96682.66;5087174;28;20031;-69
2023/06/13 04:03:54;;;;;;;10.85;10.00;;;;;;;14.70;100.00;96696.72;5080227;28;20082;-69
2023/06/13 04:06:19;;;;;;;14.07;12.10;;;;;;;14.71;100.00;96687.84;5090277;28;20039;-69
2023/06/13 04:08:45;;;;;;;16.15;14.57;;;;;;;14.75;100.00;96710.44;5084364;28;20533;-69
2023/06/13 04:11:10;;;;;;;14.30;12.85;;;;;;;14.76;100.00;96709.47;5083532;28;20377;-69
2023/06/13 04:13:35;;;;;;;16.15;14.50;;;;;;;14.74;100.00;96728.13;5089831;28;20018;-69
2023/06/13 04:16:01;;;;;;;13.18;12.00;;;;;;;14.70;100.00;96737.34;5082636;28;20024;-69
2023/06/13 04:18:27;;;;;;;12.32;11.18;;;;;;;14.60;100.00;96734.69;5082762;28;20044;-69
2023/06/13 04:20:53;;;;;;;15.52;12.32;;;;;;;14.55;100.00;96606.25;5081705;28;20024;-69
2023/06/13 04:23:20;;;;;;;16.17;14.48;;;;;;;14.55;100.00;96649.50;5087045;28;20016;-69
2023/06/13 04:25:45;;;;;;;15.82;14.23;;;;;;;14.57;100.00;96681.97;5083983;28;20027;-69
2023/06/13 04:28:13;;;;;;;21.10;19.05;;;;;;;14.57;100.00;94164.59;5085425;28;20024;-69
2023/06/13 04:30:41;;;;;;;21.85;19.58;;;;;;;14.56;100.00;94102.91;5082285;28;20370;-69
2023/06/13 04:33:14;;;;;;;21.80;19.58;;;;;;;14.60;100.00;94064.38;5077340;28;20020;-69
2023/06/13 04:35:44;;;;;;;25.20;22.45;;;;;;;14.64;100.00;94038.31;5086392;28;20457;-69
2023/06/13 04:38:13;;;;;;;26.60;21.48;;;;;;;14.73;100.00;94013.25;5066402;28;20481;-69
2023/06/13 04:40:39;;;;;;;24.77;22.38;;;;;;;14.69;100.00;93993.47;5082934;28;20115;-69
2023/06/13 04:43:05;;;;;;;21.58;19.42;;;;;;;14.71;100.00;93980.88;5089273;28;20099;-69
2023/06/13 04:45:30;;;;;;;19.73;17.73;;;;;;;14.73;100.00;93968.22;5085914;28;20055;-68
2023/06/13 04:47:57;;;;;;;21.92;18.80;;;;;;;14.70;100.00;93954.53;5084783;28;20024;-69
2023/06/13 04:50:25;;;;;;;27.48;22.23;;;;;;;14.70;100.00;93957.19;5084962;28;20021;-69
2023/06/13 04:52:53;;;;;;;21.52;19.33;;;;;;;14.74;100.00;93951.31;5086295;28;20502;-68
2023/06/13 04:55:21;;;;;;;21.58;19.52;;;;;;;14.76;100.00;93945.81;5082745;28;20507;-68
2023/06/13 04:57:47;;;;;;;20.25;18.15;;;;;;;14.75;100.00;93946.84;5084408;28;20194;-69
2023/06/13 05:00:12;;;;;;;20.20;17.92;;;;;;;14.77;100.00;93949.25;5081455;28;20020;-69
2023/06/13 05:02:41;;;;;;;23.13;20.88;;;;;;;14.79;100.00;93948.03;5089035;28;20020;-69
2023/06/13 05:05:08;;;;;;;20.50;18.40;;;;;;;14.82;100.00;93946.81;5083662;28;20058;-69
2023/06/13 05:07:39;;;;;;;12.90;11.70;;;;;;;14.81;100.00;93939.84;5084907;28;20024;-69
2023/06/13 05:10:05;;;;;;;11.10;9.25;;;;;;;14.81;100.00;93937.22;5093039;28;20047;-69
2023/06/13 05:12:30;;;;;;;8.55;7.63;;;;;;;14.81;100.00;93943.34;5090298;28;20372;-69
2023/06/13 05:14:56;;;;;;;8.52;7.63;;;;;;;14.81;100.00;93931.91;5085118;28;20016;-69
2023/06/13 05:17:21;;;;;;;8.68;7.95;;;;;;;14.81;100.00;93927.44;5084681;28;20104;-69
2023/06/13 05:19:47;;;;;;;9.65;8.70;;;;;;;14.80;100.00;93922.34;5082347;28;20111;-69
2023/06/13 05:22:13;;;;;;;10.60;9.65;;;;;;;14.74;100.00;93924.81;5086475;28;20024;-69
2023/06/13 05:24:38;;;;;;;13.70;12.43;;;;;;;14.77;100.00;93922.75;5086644;28;20022;-69
2023/06/13 05:27:04;;;;;;;12.70;11.48;;;;;;;14.73;100.00;93909.94;5085263;28;20501;-69
2023/06/13 05:29:29;;;;;;;13.48;9.45;;;;;;;14.75;100.00;93897.31;5079783;28;20016;-69
2023/06/13 05:31:55;;;;;;;10.90;9.23;;;;;;;14.83;100.00;93892.81;5083605;28;20377;-69
2023/06/13 05:34:21;;;;;;;11.35;10.23;;;;;;;14.84;100.00;93889.13;5085324;28;20039;-69
2023/06/13 05:36:47;;;;;;;13.55;9.38;;;;;;;14.85;100.00;93883.59;5088082;28;20024;-69
2023/06/13 05:39:12;;;;;;;10.55;8.07;;;;;;;14.91;100.00;93874.00;5089247;28;20026;-69
2023/06/13 05:41:39;;;;;;;10.65;9.57;;;;;;;14.92;100.00;93869.50;5088923;28;20492;-69
2023/06/13 05:44:05;;;;;;;10.90;9.38;;;;;;;14.93;100.00;93865.84;5076899;28;20016;-69
2023/06/13 05:46:30;;;;;;;7.55;6.93;;;;;;;14.96;100.00;93865.41;5088040;28;20074;-69
2023/06/13 05:48:56;;;;;;;5.30;4.90;;;;;;;15.01;100.00;93857.63;5084121;28;20373;-69
2023/06/13 06:20:10;;;;;;;9.45;8.52;;;;;;;15.62;100.00;93645.78;5069291;27;22455;-68
2023/06/13 06:22:36;;;;;;;8.50;5.70;;;;;;;15.63;100.00;93695.16;5080303;28;20036;-68
2023/06/13 06:25:02;;;;;;;5.63;5.13;;;;;;;15.64;100.00;93725.13;5076655;28;20032;-69
2023/06/13 06:27:27;;;;;;;5.10;4.70;;;;;;;15.67;100.00;93754.66;5093645;28;20025;-68
2023/06/13 06:29:52;;;;;;;4.78;4.00;;;;;;;15.68;100.00;93772.19;5077552;28;20035;-68
2023/06/13 06:32:18;;;;;;;5.13;4.65;;;;;;;15.73;100.00;93795.44;5081638;28;20032;-69
2023/06/13 06:34:43;;;;;;;3.63;3.40;;;;;;;15.69;100.00;93816.25;5079432;28;20065;-69
2023/06/13 06:37:09;;;;;;;4.00;3.80;;;;;;;15.77;100.00;93849.66;5077266;28;20421;-69
2023/06/13 06:39:35;;;;;;;10.35;3.65;;;;;;;15.81;100.00;93865.97;5078423;28;20644;-69
2023/06/13 06:42:00;;;;;;;4.00;3.67;;;;;;;15.85;100.00;93883.84;5077970;28;20036;-69
2023/06/13 06:44:26;;;;;;;3.70;3.28;;;;;;;15.87;100.00;93896.91;5080616;28;20024;-69
2023/06/13 06:46:51;;;;;;;4.20;3.90;;;;;;;15.95;100.00;93909.91;5095625;28;20041;-72
2023/06/13 06:49:17;;;;;;;5.03;2.28;;;;;;;16.03;100.00;93932.72;5079833;28;20554;-72
2023/06/13 06:51:43;;;;;;;4.40;2.10;;;;;;;16.01;100.00;93951.50;5078217;28;20102;-72
2023/06/13 06:54:08;;;;;;;2.05;1.92;;;;;;;16.01;100.00;93959.47;5082159;28;20054;-72
2023/06/13 06:56:34;;;;;;;3.03;2.83;;;;;;;15.94;100.00;93990.56;5081549;28;20108;-70
2023/06/13 06:58:59;;;;;;;2.13;2.03;;;;;;;16.04;100.00;94011.31;5077139;28;20718;-70
2023/06/13 07:01:25;;;;;;;2.45;2.10;;;;;;;16.19;100.00;94032.19;5077172;28;20086;-73
2023/06/13 07:03:50;;;;;;;5.00;1.85;;;;;;;16.31;100.00;94051.72;5077122;28;20040;-71
2023/06/13 07:06:16;;;;;;;2.40;2.08;;;;;;;16.38;100.00;94066.78;5075883;28;20021;-71
2023/06/13 07:08:41;;;;;;;2.17;2.08;;;;;;;16.41;100.00;94099.03;5074879;28;20016;-71
2023/06/13 07:11:06;;;;;;;2.55;2.30;;;;;;;16.47;100.00;94123.91;5076888;28;20060;-72
2023/06/13 07:13:32;;;;;;;2.42;2.20;;;;;;;16.47;100.00;94143.31;5076510;28;20036;-71
2023/06/13 07:15:59;;;;;;;2.95;2.05;;;;;;;16.38;100.00;94173.00;5076265;28;20562;-71
2023/06/13 07:18:25;;;;;;;5.85;2.38;;;;;;;16.36;100.00;94201.63;5079105;28;20033;-72
2023/06/13 07:20:51;;;;;;;4.38;1.83;;;;;;;16.31;100.00;94213.69;5078042;28;20388;-71
2023/06/13 07:23:16;;;;;;;1.85;1.75;;;;;;;16.31;100.00;94232.28;5098531;28;20020;-71
2023/06/13 07:25:41;;;;;;;1.73;1.63;;;;;;;16.32;100.00;94249.03;5079715;28;20154;-71
2023/06/13 07:28:08;;;;;;;3.50;1.75;;;;;;;16.36;100.00;94252.91;5079988;28;20058;-71
2023/06/13 07:30:34;;;;;;;2.47;1.88;;;;;;;16.45;100.00;94269.38;5068614;28;20381;-71
2023/06/13 07:32:59;;;;;;;1.95;1.73;;;;;;;16.52;100.00;94280.78;5062881;28;20036;-71
2023/06/13 07:35:25;;;;;;;4.15;1.90;;;;;;;16.49;100.00;94286.53;5066126;28;20024;-71
2023/06/13 07:37:52;;;;;;;2.17;2.00;;;;;;;16.53;100.00;94298.34;5063498;28;20032;-72
2023/06/13 07:40:18;;;;;;;3.67;2.00;;;;;;;16.58;100.00;94303.84;5060936;28;20039;-71
2023/06/13 07:42:43;;;;;;;5.97;1.92;;;;;;;16.57;100.00;94314.66;5062855;28;20017;-71
2023/06/13 07:45:09;;;;;;;2.72;1.90;;;;;;;16.64;100.00;94306.66;5063562;28;20107;-71
2023/06/13 07:47:35;;;;;;;3.35;2.00;;;;;;;16.63;100.00;94310.34;5065416;28;20028;-71
2023/06/13 07:50:01;;;;;;;3.20;2.13;;;;;;;16.68;100.00;94314.00;5078718;28;20024;-71
2023/06/13 07:52:27;;;;;;;1.85;1.75;;;;;;;16.75;100.00;94317.41;5060136;28;20046;-71
2023/06/13 07:54:52;;;;;;;5.25;1.70;;;;;;;16.77;100.00;94322.53;5064952;28;20024;-71
2023/06/13 07:57:18;;;;;;;6.38;1.67;;;;;;;16.85;100.00;94337.41;5069272;28;20043;-71
2023/06/13 07:59:44;;;;;;;3.80;1.75;;;;;;;16.94;100.00;94351.25;5065786;28;20028;-73
2023/06/13 08:02:10;;;;;;;5.30;1.75;;;;;;;16.95;100.00;94368.84;5067996;28;20057;-73
2023/06/13 08:04:35;;;;;;;4.93;1.65;;;;;;;16.98;100.00;94392.34;5078632;28;20017;-71
2023/06/13 08:07:01;;;;;;;3.42;1.75;;;;;;;16.97;100.00;94419.94;5082787;28;20032;-72
2023/06/13 08:09:26;;;;;;;3.95;1.90;;;;;;;17.01;100.00;94431.81;5064302;28;20082;-72
2023/06/13 08:11:51;;;;;;;1.77;1.67;;;;;;;17.12;100.00;94444.41;5078741;28;20107;-72
2023/06/13 08:14:17;;;;;;;4.43;1.85;;;;;;;17.23;100.00;94466.06;5065117;28;20116;-71
2023/06/13 08:16:42;;;;;;;5.47;4.63;;;;;;;17.33;100.00;94479.69;5066189;28;20042;-72
2023/06/13 08:19:08;;;;;;;2.00;1.90;;;;;;;17.43;100.00;94497.84;5064397;28;20131;-69
2023/06/13 08:21:33;;;;;;;5.25;1.95;;;;;;;17.55;100.00;94522.75;5057249;28;20106;-70
2023/06/13 08:23:59;;;;;;;2.63;1.58;;;;;;;17.68;100.00;94537.81;5077058;28;20286;-69
2023/06/13 08:26:25;;;;;;;1.48;1.40;;;;;;;17.65;100.00;94575.50;5077898;28;20028;-70
2023/06/13 08:28:51;;;;;;;2.22;1.60;;;;;;;17.75;100.00;94622.94;5068690;28;20017;-69
2023/06/13 08:31:23;;;;;;;1.88;1.30;;;;;;;17.83;100.00;94669.81;5067208;28;20374;-69
2023/06/13 08:33:52;;;;;;;1.58;1.48;;;;;;;17.89;100.00;94717.66;5075510;28;20036;-69
2023/06/13 08:36:17;;;;;;;1.50;1.42;;;;;;;18.09;100.00;94747.94;5077785;28;20021;-70
2023/06/13 08:38:43;;;;;;;1.52;1.42;;;;;;;18.18;100.00;94792.78;5069751;28;20036;-69
2023/06/13 08:41:10;;;;;;;1.48;1.38;;;;;;;18.25;100.00;94923.28;5062053;28;20039;-70
2023/06/13 08:43:37;;;;;;;1.58;1.48;;;;;;;18.33;100.00;95111.38;5060632;28;20037;-70
2023/06/13 08:46:02;;;;;;;1.40;1.40;;;;;;;18.47;100.00;95221.50;5066888;28;20067;-70
2023/06/13 08:48:32;;;;;;;4.82;1.42;;;;;;;18.50;100.00;95285.06;5058816;28;20067;-72
2023/06/13 08:50:59;;;;;;;1.77;1.38;;;;;;;18.60;100.00;95332.66;5060547;28;20035;-72
2023/06/13 08:53:27;;;;;;;1.58;1.48;;;;;;;18.57;100.00;95370.38;5066287;28;20112;-72
2023/06/13 08:55:54;;;;;;;1.63;1.52;;;;;;;18.61;100.00;95395.59;5058895;28;20065;-71
2023/06/13 08:58:22;;;;;;;1.63;1.52;;;;;;;18.71;100.00;95413.88;5061034;28;20086;-72
2023/06/13 09:00:48;;;;;;;1.55;1.45;;;;;;;18.85;100.00;95436.09;5063515;28;20017;-72
2023/06/13 09:03:13;;;;;;;1.50;1.40;;;;;;;18.88;100.00;95459.69;5063578;28;20025;-72
2023/06/13 09:05:40;;;;;;;2.00;1.50;;;;;;;19.14;100.00;95466.97;5060258;28;20032;-72
2023/06/13 09:08:06;;;;;;;1.50;1.40;;;;;;;19.21;100.00;95483.00;5066579;28;20083;-72
2023/06/13 09:10:32;;;;;;;3.40;1.67;;;;;;;19.47;100.00;95492.91;5062724;28;20032;-72
2023/06/13 09:12:59;;;;;;;5.72;1.73;;;;;;;19.49;100.00;95492.72;5060003;28;20029;-72
2023/06/13 09:15:26;;;;;;;3.05;1.65;;;;;;;19.57;100.00;95494.38;5069239;28;20089;-72
2023/06/13 09:17:53;;;;;;;2.08;1.65;;;;;;;19.66;100.00;95494.97;5063340;28;20517;-69
2023/06/13 09:20:19;;;;;;;1.83;1.80;;;;;;;19.75;100.00;95467.06;5063118;28;20064;-68
2023/06/13 09:22:45;;;;;;;1.80;1.70;;;;;;;19.89;100.00;95463.38;5084084;28;20055;-69
2023/06/13 09:25:16;;;;;;;1.98;1.80;;;;;;;20.07;100.00;95456.59;5060434;28;20469;-70
2023/06/13 09:27:42;;;;;;;2.05;1.95;;;;;;;20.36;100.00;95451.81;5058151;28;20020;-70
2023/06/13 09:30:08;;;;;;;1.77;1.67;;;;;;;20.83;100.00;95456.22;5080149;28;20132;-70
2023/06/13 09:32:36;;;;;;;3.90;2.85;;;;;;;21.46;100.00;95457.31;5081116;28;20100;-70
2023/06/13 09:35:05;;;;;;;4.65;2.72;;;;;;;22.06;100.00;95439.16;5062123;28;20118;-69
2023/06/13 09:37:32;;;;;;;2.92;2.25;;;;;;;22.31;100.00;95453.31;5062322;28;20025;-70
2023/06/13 09:40:05;;;;;;;2.47;2.20;;;;;;;22.88;100.00;95444.28;5066592;28;20021;-68
2023/06/13 09:42:31;;;;;;;1.80;1.70;;;;;;;23.46;100.00;95428.63;5064698;28;20562;-68
2023/06/13 09:44:56;;;;;;;1.10;1.10;;;;;;;23.87;100.00;95403.78;5060368;28;20910;-68
2023/06/13 09:47:25;;;;;;;2.05;1.50;;;;;;;23.73;100.00;95401.31;5067091;28;20335;-68
2023/06/13 09:49:58;;;;;;;1.60;1.50;;;;;;;24.35;100.00;95410.00;5064566;28;20025;-69
2023/06/13 09:52:28;;;;;;;1.65;1.55;;;;;;;24.44;100.00;95437.34;5062056;28;20213;-70
2023/06/13 09:58:21;;;;;;;2.65;1.40;;;;;;;25.03;100.00;95385.25;5137038;27;20401;-71
2023/06/13 10:00:48;;;;;;;2.15;1.17;;;;;;;25.27;100.00;95415.59;5147948;27;20430;-73
2023/06/13 10:03:16;;;;;;;1.95;1.30;;;;;;;24.95;100.00;95434.09;5144727;27;20080;-73
2023/06/13 10:05:43;;;;;;;1.23;1.23;;;;;;;24.86;100.00;95447.13;5148497;27;20038;-72
2023/06/13 10:08:08;;;;;;;1.65;1.50;;;;;;;24.79;100.00;95447.25;5144604;27;20047;-70
2023/06/13 10:10:33;;;;;;;2.05;1.25;;;;;;;24.99;100.00;95459.47;5146675;27;20018;-71
2023/06/13 10:13:03;;;;;;;2.70;1.45;;;;;;;25.20;100.00;95459.88;5139522;27;20439;-70
2023/06/13 10:15:42;;;;;;;1.27;1.25;;;;;;;24.89;100.00;95454.72;5149008;27;20031;-71
2023/06/13 10:18:13;;;;;;;1.02;1.02;;;;;;;24.64;100.00;95431.56;5147648;27;20394;-70
2023/06/13 10:20:40;;;;;;;1.75;1.40;;;;;;;24.58;100.00;95448.69;5144374;27;20547;-70
2023/06/13 10:23:13;;;;;;;2.08;1.40;;;;;;;24.16;100.00;95461.22;5137571;27;20037;-70
2023/06/13 10:25:40;;;;;;;6.22;1.35;;;;;;;24.21;100.00;95482.03;5142485;27;20074;-70
2023/06/13 10:28:35;;;;;;;1.40;1.30;;;;;;;24.20;100.00;95487.66;5144778;27;20475;-70
2023/06/13 10:31:26;;;;;;;1.60;1.50;;;;;;;24.30;100.00;95512.06;5107176;27;20038;-72
2023/06/13 10:34:10;;;;;;;1.50;1.40;;;;;;;24.97;100.00;95499.28;5140417;27;20080;-70
2023/06/13 10:36:41;;;;;;;1.40;1.40;;;;;;;25.50;100.00;95456.13;5152620;27;20083;-72
2023/06/13 10:39:15;;;;;;;1.63;1.52;;;;;;;25.88;100.00;95454.63;5146327;27;20055;-72
2023/06/13 10:41:56;;;;;;;2.10;1.45;;;;;;;26.18;100.00;95442.69;5142572;27;20452;-72
2023/06/13 10:44:31;;;;;;;2.55;1.20;;;;;;;26.09;100.00;95425.28;5144539;27;20028;-75
2023/06/13 10:46:57;;;;;;;1.10;1.02;;;;;;;25.77;100.00;95433.97;5144878;27;20440;-71
2023/06/13 10:49:22;;;;;;;1.60;1.50;;;;;;;25.09;100.00;95454.31;5145414;27;20011;-74
2023/06/13 10:51:48;;;;;;;1.30;1.30;;;;;;;25.14;100.00;95448.19;5144276;27;20030;-70
2023/06/13 10:54:15;;;;;;;1.15;1.15;;;;;;;24.88;100.00;95439.63;5142510;27;20402;-72
2023/06/13 10:56:43;;;;;;;1.25;1.17;;;;;;;24.45;100.00;95457.81;5147118;27;20043;-72
2023/06/13 10:59:11;;;;;;;1.30;1.30;;;;;;;24.04;100.00;95476.53;5141190;27;20114;-72
2023/06/13 11:01:40;;;;;;;2.10;1.90;;;;;;;23.48;100.00;95522.41;5143818;27;20015;-71
2023/06/13 11:04:14;;;;;;;2.80;1.40;;;;;;;23.07;100.00;95562.34;5140691;27;20029;-72
2023/06/13 11:06:42;;;;;;;1.60;1.60;;;;;;;23.44;100.00;95578.44;5146932;27;20114;-72
2023/06/13 11:09:19;;;;;;;2.13;1.73;;;;;;;22.74;100.00;95618.00;5136404;27;20047;-71
2023/06/13 11:11:45;;;;;;;2.33;2.15;;;;;;;22.78;100.00;95639.84;5125916;27;20398;-70
2023/06/13 11:14:10;;;;;;;1.77;1.42;;;;;;;23.17;100.00;95608.28;5130898;27;20117;-70
2023/06/13 11:16:39;;;;;;;2.20;1.75;;;;;;;22.39;100.00;95590.84;5133308;27;20589;-70
2023/06/13 11:19:21;;;;;;;1.38;1.38;;;;;;;22.28;100.00;95628.06;5132365;27;20079;-69
2023/06/13 11:21:52;;;;;;;2.67;1.60;;;;;;;22.19;100.00;95653.47;5131273;27;20023;-69
2023/06/13 11:24:18;;;;;;;1.83;1.70;;;;;;;22.07;100.00;95671.31;5130901;27;20572;-71
2023/06/13 11:26:45;;;;;;;6.00;1.80;;;;;;;22.27;100.00;95672.00;5124526;27;20503;-71
2023/06/13 11:29:12;;;;;;;2.72;1.70;;;;;;;21.77;100.00;95661.97;5126101;27;20087;-71
2023/06/13 11:31:39;;;;;;;2.22;2.05;;;;;;;21.67;100.00;95667.78;5127513;27;20392;-70
2023/06/13 11:34:13;;;;;;;8.52;1.80;;;;;;;21.53;100.00;95684.88;5132719;27;20019;-71
2023/06/13 11:36:43;;;;;;;2.95;1.77;;;;;;;21.43;100.00;95688.84;5127732;27;20023;-69
2023/06/13 11:39:15;;;;;;;1.80;1.80;;;;;;;21.45;100.00;95676.06;5124204;27;20026;-71
2023/06/13 11:41:42;;;;;;;1.83;1.73;;;;;;;21.18;100.00;95678.00;5128620;27;20046;-70
2023/06/13 11:44:08;;;;;;;2.28;2.08;;;;;;;21.22;100.00;95702.50;5127353;27;20051;-69
2023/06/13 11:46:41;;;;;;;2.40;2.30;;;;;;;21.02;100.00;95703.34;5128902;27;20036;-69
2023/06/13 11:49:12;;;;;;;2.58;2.25;;;;;;;20.70;100.00;95730.69;5131654;27;20076;-71
2023/06/13 11:51:37;;;;;;;2.20;2.00;;;;;;;20.65;100.00;95759.06;5119502;27;20106;-70
2023/06/13 11:54:03;;;;;;;1.88;1.67;;;;;;;20.29;100.00;95753.03;5129456;27;20137;-69